createdAt,value
2022-09-25T00:00:16.999Z,15.10
2022-09-25T00:01:17.037Z,15.21
2022-09-25T00:02:16.995Z,15.07
2022-09-25T00:03:16.896Z,15.06
2022-09-25T00:04:16.862Z,15.21
2022-09-25T00:05:16.826Z,15.04
2022-09-25T00:06:16.790Z,15.03
2022-09-25T00:07:16.757Z,15.15
2022-09-25T00:08:16.760Z,15.07
2022-09-25T00:09:16.696Z,15.06
2022-09-25T00:10:16.660Z,15.03
2022-09-25T00:11:16.623Z,15.00
2022-09-25T00:12:16.592Z,15.03
2022-09-25T00:13:16.565Z,15.09
2022-09-25T00:14:16.524Z,14.94
2022-09-25T00:15:16.490Z,14.81
2022-09-25T00:16:16.590Z,14.86
2022-09-25T00:17:16.429Z,14.92
2022-09-25T00:18:16.498Z,14.92
2022-09-25T00:19:16.354Z,14.96
2022-09-25T00:20:16.322Z,15.04
2022-09-25T00:21:16.291Z,15.03
2022-09-25T00:22:16.256Z,15.06
2022-09-25T00:23:16.234Z,15.14
2022-09-25T00:24:16.191Z,15.07
2022-09-25T00:25:16.158Z,15.00
2022-09-25T00:26:16.127Z,15.06
2022-09-25T00:27:16.096Z,15.03
2022-09-25T00:28:18.287Z,14.99
2022-09-25T00:29:16.019Z,15.03
2022-09-25T00:30:15.988Z,15.02
2022-09-25T00:31:16.018Z,15.02
2022-09-25T00:32:15.946Z,15.04
2022-09-25T00:33:15.888Z,15.15
2022-09-25T00:34:15.955Z,15.15
2022-09-25T00:35:15.841Z,15.15
2022-09-25T00:36:15.794Z,15.21
2022-09-25T00:37:15.755Z,15.22
2022-09-25T00:38:15.719Z,15.28
2022-09-25T00:39:15.689Z,15.27
2022-09-25T00:40:15.770Z,15.22
2022-09-25T00:41:15.726Z,15.29
2022-09-25T00:42:15.586Z,15.28
2022-09-25T00:43:15.567Z,15.10
2022-09-25T00:44:15.523Z,15.22
2022-09-25T00:45:15.533Z,15.22
2022-09-25T00:46:15.515Z,15.17
2022-09-25T00:47:15.421Z,15.03
2022-09-25T00:48:15.400Z,15.00
2022-09-25T00:49:15.351Z,15.10
2022-09-25T00:50:15.321Z,15.06
2022-09-25T00:51:15.297Z,15.09
2022-09-25T00:52:15.250Z,15.10
2022-09-25T00:53:15.217Z,15.03
2022-09-25T00:54:15.186Z,15.06
2022-09-25T00:55:15.149Z,15.14
2022-09-25T00:56:15.117Z,14.96
2022-09-25T00:57:15.088Z,15.17
2022-09-25T00:58:15.048Z,15.17
2022-09-25T00:59:15.022Z,15.10
2022-09-25T01:00:14.981Z,15.09
2022-09-25T01:01:14.999Z,15.10
2022-09-25T01:02:14.964Z,15.10
2022-09-25T01:03:14.884Z,15.24
2022-09-25T01:04:14.850Z,15.24
2022-09-25T01:05:14.812Z,15.25
2022-09-25T01:06:14.783Z,15.27
2022-09-25T01:07:14.776Z,15.37
2022-09-25T01:08:14.712Z,15.37
2022-09-25T01:09:14.681Z,15.40
2022-09-25T01:10:14.650Z,15.39
2022-09-25T01:11:14.621Z,15.25
2022-09-25T01:12:14.699Z,15.22
2022-09-25T01:13:14.567Z,15.22
2022-09-25T01:14:14.518Z,15.09
2022-09-25T01:15:14.484Z,15.18
2022-09-25T01:16:14.529Z,15.27
2022-09-25T01:17:14.427Z,15.25
2022-09-25T01:18:14.380Z,15.21
2022-09-25T01:19:14.349Z,15.24
2022-09-25T01:20:14.314Z,15.31
2022-09-25T01:21:14.279Z,15.35
2022-09-25T01:22:14.284Z,15.39
2022-09-25T01:23:14.214Z,15.31
2022-09-25T01:24:14.181Z,15.33
2022-09-25T01:25:14.145Z,15.39
2022-09-25T01:26:15.981Z,15.37
2022-09-25T01:27:14.080Z,15.35
2022-09-25T01:28:14.044Z,15.00
2022-09-25T01:29:14.020Z,14.99
2022-09-25T01:30:13.996Z,15.09
2022-09-25T01:31:14.048Z,15.04
2022-09-25T01:32:13.917Z,15.03
2022-09-25T01:33:13.884Z,14.99
2022-09-25T01:34:13.845Z,15.06
2022-09-25T01:35:13.824Z,15.10
2022-09-25T01:36:13.776Z,14.97
2022-09-25T01:37:13.743Z,14.99
2022-09-25T01:38:13.713Z,14.81
2022-09-25T01:39:13.674Z,14.81
2022-09-25T01:40:13.684Z,14.88
2022-09-25T01:41:13.611Z,14.81
2022-09-25T01:42:13.576Z,14.94
2022-09-25T01:43:13.538Z,14.94
2022-09-25T01:44:13.665Z,14.96
2022-09-25T01:45:13.985Z,15.02
2022-09-25T01:46:13.485Z,14.79
2022-09-25T01:47:13.408Z,15.00
2022-09-25T01:48:13.520Z,14.97
2022-09-25T01:49:13.341Z,14.86
2022-09-25T01:50:13.308Z,14.69
2022-09-25T01:51:13.275Z,14.79
2022-09-25T01:52:13.244Z,14.72
2022-09-25T01:53:13.224Z,14.65
2022-09-25T01:54:13.285Z,14.68
2022-09-25T01:55:13.179Z,14.72
2022-09-25T01:56:13.107Z,14.84
2022-09-25T01:57:13.074Z,14.77
2022-09-25T01:58:13.039Z,14.79
2022-09-25T01:59:13.018Z,14.81
2022-09-25T02:00:12.974Z,14.77
2022-09-25T02:01:12.992Z,14.69
2022-09-25T02:02:12.950Z,14.86
2022-09-25T02:03:12.875Z,14.94
2022-09-25T02:04:12.927Z,15.03
2022-09-25T02:05:12.803Z,15.03
2022-09-25T02:06:12.769Z,15.04
2022-09-25T02:07:12.783Z,15.00
2022-09-25T02:08:12.698Z,14.84
2022-09-25T02:09:12.668Z,14.85
2022-09-25T02:10:12.636Z,14.97
2022-09-25T02:11:12.617Z,14.92
2022-09-25T02:12:12.565Z,15.04
2022-09-25T02:13:12.532Z,14.70
2022-09-25T02:14:12.595Z,14.77
2022-09-25T02:15:12.466Z,14.82
2022-09-25T02:16:12.521Z,14.85
2022-09-25T02:17:12.397Z,14.85
2022-09-25T02:18:12.369Z,15.00
2022-09-25T02:19:12.333Z,14.99
2022-09-25T02:20:12.300Z,15.06
2022-09-25T02:21:12.263Z,15.00
2022-09-25T02:22:12.231Z,15.04
2022-09-25T02:23:12.230Z,15.07
2022-09-25T02:24:12.395Z,15.07
2022-09-25T02:25:12.141Z,15.06
2022-09-25T02:26:12.186Z,15.17
2022-09-25T02:27:12.119Z,15.06
2022-09-25T02:28:12.027Z,15.14
2022-09-25T02:29:11.993Z,14.97
2022-09-25T02:30:11.965Z,15.00
2022-09-25T02:31:11.964Z,15.00
2022-09-25T02:32:11.891Z,15.04
2022-09-25T02:33:11.860Z,15.04
2022-09-25T02:34:14.995Z,15.04
2022-09-25T02:35:11.788Z,14.99
2022-09-25T02:36:11.763Z,14.81
2022-09-25T02:37:11.726Z,14.77
2022-09-25T02:38:11.690Z,14.82
2022-09-25T02:39:11.662Z,14.94
2022-09-25T02:40:11.694Z,14.97
2022-09-25T02:41:11.592Z,15.04
2022-09-25T02:42:11.576Z,15.03
2022-09-25T02:43:11.523Z,15.03
2022-09-25T02:44:11.575Z,15.14
2022-09-25T02:45:11.452Z,15.11
2022-09-25T02:46:11.520Z,15.02
2022-09-25T02:47:11.387Z,15.15
2022-09-25T02:48:11.356Z,15.10
2022-09-25T02:49:11.316Z,15.11
2022-09-25T02:50:11.296Z,15.09
2022-09-25T02:51:11.252Z,15.06
2022-09-25T02:52:11.221Z,15.11
2022-09-25T02:53:11.183Z,15.15
2022-09-25T02:54:11.197Z,14.96
2022-09-25T02:55:11.117Z,15.07
2022-09-25T02:56:11.089Z,15.00
2022-09-25T02:57:11.048Z,15.18
2022-09-25T02:58:11.019Z,15.14
2022-09-25T02:59:10.982Z,15.11
2022-09-25T03:00:10.953Z,15.14
2022-09-25T03:01:10.981Z,15.14
2022-09-25T03:02:10.914Z,15.10
2022-09-25T03:03:10.850Z,15.10
2022-09-25T03:04:10.912Z,15.10
2022-09-25T03:05:10.782Z,15.09
2022-09-25T03:06:10.748Z,15.11
2022-09-25T03:07:10.713Z,15.17
2022-09-25T03:08:10.685Z,15.11
2022-09-25T03:09:10.679Z,15.02
2022-09-25T03:10:10.611Z,15.11
2022-09-25T03:11:10.579Z,15.11
2022-09-25T03:12:10.549Z,15.04
2022-09-25T03:13:10.514Z,15.11
2022-09-25T03:14:10.649Z,15.10
2022-09-25T03:15:10.441Z,15.10
2022-09-25T03:16:10.424Z,15.11
2022-09-25T03:17:10.375Z,15.06
2022-09-25T03:18:10.346Z,15.19
2022-09-25T03:19:10.306Z,15.24
2022-09-25T03:20:10.276Z,15.19
2022-09-25T03:21:10.240Z,15.27
2022-09-25T03:22:10.212Z,15.22
2022-09-25T03:23:10.178Z,15.17
2022-09-25T03:24:10.185Z,15.19
2022-09-25T03:25:10.732Z,15.24
2022-09-25T03:26:10.072Z,15.25
2022-09-25T03:27:10.036Z,15.21
2022-09-25T03:28:10.003Z,15.19
2022-09-25T03:29:09.968Z,15.22
2022-09-25T03:30:09.943Z,15.27
2022-09-25T03:31:09.940Z,15.24
2022-09-25T03:32:09.872Z,15.22
2022-09-25T03:33:09.836Z,15.22
2022-09-25T03:34:09.896Z,15.24
2022-09-25T03:35:09.786Z,15.15
2022-09-25T03:36:09.737Z,15.27
2022-09-25T03:37:09.704Z,15.10
2022-09-25T03:38:09.671Z,15.19
2022-09-25T03:39:09.636Z,15.27
2022-09-25T03:40:09.650Z,15.19
2022-09-25T03:41:09.604Z,15.19
2022-09-25T03:42:09.538Z,15.21
2022-09-25T03:43:30.496Z,15.18
2022-09-25T03:44:09.519Z,15.10
2022-09-25T03:45:09.433Z,15.06
2022-09-25T03:46:09.514Z,15.17
2022-09-25T03:47:09.365Z,15.21
2022-09-25T03:48:09.332Z,15.11
2022-09-25T03:49:09.322Z,15.00
2022-09-25T03:50:09.266Z,14.92
2022-09-25T03:51:09.233Z,14.84
2022-09-25T03:52:09.200Z,14.92
2022-09-25T03:53:09.164Z,15.00
2022-09-25T03:54:09.137Z,14.99
2022-09-25T03:55:09.109Z,15.04
2022-09-25T03:56:09.067Z,15.04
2022-09-25T03:57:09.039Z,15.04
2022-09-25T03:58:08.996Z,15.00
2022-09-25T03:59:08.965Z,15.00
2022-09-25T04:00:08.931Z,14.97
2022-09-25T04:01:08.937Z,14.86
2022-09-25T04:02:09.011Z,14.94
2022-09-25T04:03:08.830Z,15.02
2022-09-25T04:04:08.795Z,14.99
2022-09-25T04:05:08.766Z,15.00
2022-09-25T04:06:08.723Z,15.02
2022-09-25T04:07:08.692Z,14.89
2022-09-25T04:08:08.662Z,14.92
2022-09-25T04:09:08.628Z,14.85
2022-09-25T04:10:08.594Z,14.84
2022-09-25T04:11:08.558Z,14.85
2022-09-25T04:12:08.546Z,14.84
2022-09-25T04:13:08.510Z,14.85
2022-09-25T04:14:08.458Z,14.82
2022-09-25T04:15:08.423Z,14.85
2022-09-25T04:16:08.628Z,14.88
2022-09-25T04:17:08.358Z,14.79
2022-09-25T04:18:08.326Z,14.79
2022-09-25T04:19:08.289Z,14.88
2022-09-25T04:20:08.252Z,14.84
2022-09-25T04:21:08.222Z,14.82
2022-09-25T04:22:08.187Z,14.86
2022-09-25T04:23:08.197Z,14.82
2022-09-25T04:24:08.125Z,14.91
2022-09-25T04:25:08.082Z,14.91
2022-09-25T04:26:08.049Z,14.84
2022-09-25T04:27:08.048Z,14.82
2022-09-25T04:28:07.984Z,14.84
2022-09-25T04:29:07.946Z,14.79
2022-09-25T04:30:07.914Z,14.79
2022-09-25T04:31:07.949Z,14.85
2022-09-25T04:32:07.863Z,14.82
2022-09-25T04:33:07.811Z,14.84
2022-09-25T04:34:07.781Z,14.84
2022-09-25T04:35:07.764Z,14.84
2022-09-25T04:36:07.716Z,14.84
2022-09-25T04:37:07.696Z,14.82
2022-09-25T04:38:07.641Z,14.86
2022-09-25T04:39:07.611Z,14.84
2022-09-25T04:40:07.595Z,14.92
2022-09-25T04:41:07.539Z,14.85
2022-09-25T04:42:07.509Z,14.88
2022-09-25T04:43:07.473Z,14.88
2022-09-25T04:44:07.456Z,14.70
2022-09-25T04:45:07.404Z,14.62
2022-09-25T04:46:07.570Z,14.69
2022-09-25T04:47:07.341Z,14.73
2022-09-25T04:48:07.304Z,14.70
2022-09-25T04:49:07.274Z,14.78
2022-09-25T04:50:07.333Z,14.79
2022-09-25T04:51:07.201Z,14.77
2022-09-25T04:52:07.174Z,14.82
2022-09-25T04:53:07.137Z,14.70
2022-09-25T04:54:07.153Z,14.84
2022-09-25T04:55:07.067Z,14.72
2022-09-25T04:56:10.853Z,14.78
2022-09-25T04:57:07.007Z,14.79
2022-09-25T04:58:06.969Z,14.78
2022-09-25T04:59:06.931Z,14.86
2022-09-25T05:00:06.899Z,14.79
2022-09-25T05:01:06.955Z,14.81
2022-09-25T05:02:06.874Z,14.86
2022-09-25T05:03:07.015Z,14.82
2022-09-25T05:04:12.885Z,14.81
2022-09-25T05:05:06.732Z,14.84
2022-09-25T05:06:06.703Z,14.89
2022-09-25T05:07:06.665Z,14.73
2022-09-25T05:08:06.661Z,14.72
2022-09-25T05:09:06.596Z,14.78
2022-09-25T05:10:06.564Z,14.81
2022-09-25T05:11:06.526Z,14.77
2022-09-25T05:12:06.496Z,14.73
2022-09-25T05:13:06.459Z,14.84
2022-09-25T05:14:06.482Z,14.77
2022-09-25T05:15:06.391Z,14.73
2022-09-25T05:16:06.543Z,14.86
2022-09-25T05:17:06.323Z,14.69
2022-09-25T05:18:06.286Z,14.68
2022-09-25T05:19:06.255Z,14.65
2022-09-25T05:20:06.223Z,14.72
2022-09-25T05:21:06.257Z,14.70
2022-09-25T05:22:06.163Z,14.79
2022-09-25T05:23:06.123Z,14.53
2022-09-25T05:24:06.207Z,14.55
2022-09-25T05:25:06.057Z,14.44
2022-09-25T05:26:06.021Z,14.32
2022-09-25T05:27:05.997Z,14.26
2022-09-25T05:28:05.951Z,14.23
2022-09-25T05:29:05.920Z,14.10
2022-09-25T05:30:05.886Z,14.15
2022-09-25T05:31:05.913Z,14.18
2022-09-25T05:32:05.814Z,14.18
2022-09-25T05:33:05.786Z,14.17
2022-09-25T05:34:05.749Z,14.30
2022-09-25T05:35:05.720Z,14.40
2022-09-25T05:36:05.682Z,14.32
2022-09-25T05:37:06.258Z,14.30
2022-09-25T05:38:05.615Z,14.32
2022-09-25T05:39:05.580Z,14.29
2022-09-25T05:40:05.544Z,14.28
2022-09-25T05:41:05.513Z,14.25
2022-09-25T05:42:06.338Z,14.14
2022-09-25T05:43:05.443Z,14.36
2022-09-25T05:44:05.407Z,14.29
2022-09-25T05:45:07.635Z,14.17
2022-09-25T05:46:05.369Z,14.03
2022-09-25T05:47:05.305Z,13.95
2022-09-25T05:48:06.327Z,13.90
2022-09-25T05:49:05.267Z,13.92
2022-09-25T05:50:05.203Z,13.96
2022-09-25T05:51:05.179Z,14.08
2022-09-25T05:52:05.139Z,13.93
2022-09-25T05:53:05.099Z,13.77
2022-09-25T05:54:05.829Z,13.89
2022-09-25T05:55:05.037Z,13.78
2022-09-25T05:56:05.058Z,13.78
2022-09-25T05:57:04.964Z,13.81
2022-09-25T05:58:04.953Z,13.85
2022-09-25T05:59:04.898Z,13.95
2022-09-25T06:00:04.862Z,14.03
2022-09-25T06:01:04.833Z,14.05
2022-09-25T06:02:04.871Z,14.04
2022-09-25T06:03:04.830Z,14.05
2022-09-25T06:04:04.726Z,14.12
2022-09-25T06:05:04.694Z,13.89
2022-09-25T06:06:04.660Z,13.83
2022-09-25T06:07:04.622Z,13.92
2022-09-25T06:08:04.586Z,14.05
2022-09-25T06:09:04.565Z,14.10
2022-09-25T06:10:04.537Z,14.04
2022-09-25T06:11:04.489Z,13.96
2022-09-25T06:12:04.454Z,13.96
2022-09-25T06:13:04.422Z,14.03
2022-09-25T06:14:04.412Z,14.07
2022-09-25T06:15:04.350Z,14.03
2022-09-25T06:16:04.353Z,14.00
2022-09-25T06:17:04.556Z,14.03
2022-09-25T06:18:04.253Z,14.05
2022-09-25T06:19:04.212Z,14.10
2022-09-25T06:20:04.190Z,14.17
2022-09-25T06:21:04.153Z,14.25
2022-09-25T06:22:04.110Z,14.32
2022-09-25T06:23:04.075Z,14.33
2022-09-25T06:24:04.071Z,14.47
2022-09-25T06:25:04.005Z,14.32
2022-09-25T06:26:04.008Z,14.20
2022-09-25T06:27:03.939Z,14.20
2022-09-25T06:28:03.906Z,14.35
2022-09-25T06:29:03.872Z,14.20
2022-09-25T06:30:03.843Z,14.36
2022-09-25T06:31:03.904Z,14.37
2022-09-25T06:32:03.770Z,14.47
2022-09-25T06:33:03.735Z,14.47
2022-09-25T06:34:03.727Z,14.48
2022-09-25T06:35:03.667Z,14.55
2022-09-25T06:36:03.633Z,14.53
2022-09-25T06:37:03.605Z,14.47
2022-09-25T06:38:03.567Z,14.35
2022-09-25T06:39:03.531Z,14.47
2022-09-25T06:40:03.494Z,14.48
2022-09-25T06:41:03.510Z,14.48
2022-09-25T06:42:03.432Z,14.53
2022-09-25T06:43:03.447Z,14.45
2022-09-25T06:44:03.536Z,14.50
2022-09-25T06:45:03.332Z,14.37
2022-09-25T06:46:03.549Z,14.32
2022-09-25T06:47:03.264Z,14.25
2022-09-25T06:48:03.227Z,14.30
2022-09-25T06:49:03.194Z,14.43
2022-09-25T06:50:03.159Z,14.28
2022-09-25T06:51:03.165Z,14.28
2022-09-25T06:52:03.090Z,14.23
2022-09-25T06:53:03.054Z,14.18
2022-09-25T06:54:03.025Z,14.10
2022-09-25T06:55:02.987Z,14.10
2022-09-25T06:56:02.972Z,14.14
2022-09-25T06:57:02.920Z,14.22
2022-09-25T06:58:02.886Z,14.25
2022-09-25T06:59:02.852Z,14.12
2022-09-25T07:00:02.816Z,14.25
2022-09-25T07:01:07.679Z,14.17
2022-09-25T07:02:02.942Z,14.30
2022-09-25T07:03:02.775Z,14.44
2022-09-25T07:04:02.681Z,14.36
2022-09-25T07:05:02.653Z,14.37
2022-09-25T07:06:02.613Z,14.41
2022-09-25T07:07:02.579Z,14.26
2022-09-25T07:08:02.546Z,14.23
2022-09-25T07:09:02.521Z,14.37
2022-09-25T07:10:02.476Z,14.12
2022-09-25T07:11:03.491Z,14.28
2022-09-25T07:12:02.414Z,14.30
2022-09-25T07:13:02.377Z,14.23
2022-09-25T07:14:02.354Z,14.32
2022-09-25T07:15:02.311Z,14.36
2022-09-25T07:16:02.351Z,14.41
2022-09-25T07:17:02.354Z,14.29
2022-09-25T07:18:02.203Z,14.26
2022-09-25T07:19:02.176Z,14.29
2022-09-25T07:20:02.163Z,14.37
2022-09-25T07:21:02.105Z,14.41
2022-09-25T07:22:02.071Z,14.51
2022-09-25T07:23:02.159Z,14.59
2022-09-25T07:24:02.002Z,14.60
2022-09-25T07:25:01.981Z,14.60
2022-09-25T07:26:01.945Z,14.69
2022-09-25T07:27:01.902Z,14.69
2022-09-25T07:28:01.869Z,14.63
2022-09-25T07:29:01.831Z,14.53
2022-09-25T07:30:01.839Z,14.47
2022-09-25T07:31:01.788Z,14.50
2022-09-25T07:32:01.727Z,14.51
2022-09-25T07:33:01.700Z,14.54
2022-09-25T07:34:01.665Z,14.37
2022-09-25T07:35:01.630Z,14.47
2022-09-25T07:36:01.593Z,14.50
2022-09-25T07:37:01.570Z,14.53
2022-09-25T07:38:01.541Z,14.70
2022-09-25T07:39:01.492Z,14.79
2022-09-25T07:40:01.458Z,14.81
2022-09-25T07:41:01.423Z,14.82
2022-09-25T07:42:01.394Z,14.88
2022-09-25T07:43:01.357Z,14.79
2022-09-25T07:44:24.294Z,14.85
2022-09-25T07:45:01.289Z,14.77
2022-09-25T07:46:01.340Z,14.72
2022-09-25T07:47:01.255Z,14.99
2022-09-25T07:48:01.191Z,15.09
2022-09-25T07:49:01.158Z,15.10
2022-09-25T07:50:01.163Z,15.25
2022-09-25T07:51:01.088Z,15.28
2022-09-25T07:52:01.055Z,15.35
2022-09-25T07:53:01.025Z,15.36
2022-09-25T07:54:00.991Z,15.44
2022-09-25T07:55:00.952Z,15.57
2022-09-25T07:56:05.835Z,15.46
2022-09-25T07:57:00.884Z,15.25
2022-09-25T07:58:00.879Z,15.22
2022-09-25T07:59:00.836Z,15.29
2022-09-25T08:00:00.790Z,15.43
2022-09-25T08:01:00.789Z,15.49
2022-09-25T08:02:00.775Z,15.55
2022-09-25T08:03:00.777Z,15.64
2022-09-25T08:04:00.672Z,15.65
2022-09-25T08:05:00.641Z,15.76
2022-09-25T08:06:00.581Z,15.76
2022-09-25T08:07:00.551Z,15.64
2022-09-25T08:08:00.517Z,15.31
2022-09-25T08:09:00.485Z,15.49
2022-09-25T08:10:00.453Z,15.64
2022-09-25T08:11:00.416Z,15.65
2022-09-25T08:12:00.384Z,15.75
2022-09-25T08:13:00.363Z,15.77
2022-09-25T08:14:00.317Z,15.57
2022-09-25T08:15:00.282Z,15.59
2022-09-25T08:16:00.324Z,15.44
2022-09-25T08:17:00.228Z,15.27
2022-09-25T08:18:00.185Z,15.35
2022-09-25T08:19:00.157Z,15.27
2022-09-25T08:20:00.145Z,15.25
2022-09-25T08:21:00.098Z,15.22
2022-09-25T08:22:00.053Z,15.10
2022-09-25T08:23:00.020Z,15.00
2022-09-25T08:23:59.983Z,14.96
2022-09-25T08:24:59.950Z,14.82
2022-09-25T08:25:59.921Z,14.72
2022-09-25T08:26:59.883Z,14.78
2022-09-25T08:27:59.851Z,14.85
2022-09-25T08:28:59.859Z,15.04
2022-09-25T08:29:59.779Z,15.06
2022-09-25T08:30:59.810Z,14.97
2022-09-25T08:31:59.716Z,15.18
2022-09-25T08:32:59.684Z,15.19
2022-09-25T08:34:09.975Z,15.00
2022-09-25T08:34:59.620Z,15.07
2022-09-25T08:35:59.586Z,15.24
2022-09-25T08:36:59.552Z,15.19
2022-09-25T08:37:59.518Z,15.40
2022-09-25T08:38:59.482Z,15.46
2022-09-25T08:39:59.452Z,15.57
2022-09-25T08:40:59.454Z,15.46
2022-09-25T08:41:59.383Z,15.51
2022-09-25T08:42:59.347Z,15.61
2022-09-25T08:43:59.313Z,15.54
2022-09-25T08:45:19.969Z,15.54
2022-09-25T08:45:59.333Z,15.58
2022-09-25T08:46:59.213Z,15.80
2022-09-25T08:47:59.178Z,15.82
2022-09-25T08:48:59.147Z,15.94
2022-09-25T08:49:59.113Z,16.02
2022-09-25T08:50:59.081Z,15.95
2022-09-25T08:51:59.048Z,16.05
2022-09-25T08:52:59.015Z,16.15
2022-09-25T08:53:59.009Z,16.10
2022-09-25T08:54:58.959Z,16.12
2022-09-25T08:55:58.916Z,16.17
2022-09-25T08:56:58.884Z,16.16
2022-09-25T08:57:58.849Z,16.09
2022-09-25T08:58:58.819Z,16.31
2022-09-25T09:00:02.194Z,16.32
2022-09-25T09:00:58.825Z,16.39
2022-09-25T09:01:58.715Z,16.50
2022-09-25T09:02:58.742Z,16.42
2022-09-25T09:03:58.653Z,16.49
2022-09-25T09:04:58.703Z,16.41
2022-09-25T09:05:58.594Z,16.39
2022-09-25T09:07:25.098Z,16.47
2022-09-25T09:07:58.517Z,16.16
2022-09-25T09:08:58.499Z,16.26
2022-09-25T09:09:58.450Z,16.38
2022-09-25T09:10:58.419Z,16.28
2022-09-25T09:11:58.399Z,16.29
2022-09-25T09:12:58.352Z,16.36
2022-09-25T09:13:58.326Z,16.39
2022-09-25T09:14:58.285Z,16.56
2022-09-25T09:15:58.300Z,16.54
2022-09-25T09:16:58.228Z,16.66
2022-09-25T09:17:58.197Z,16.68
2022-09-25T09:18:58.155Z,16.69
2022-09-25T09:19:58.124Z,16.64
2022-09-25T09:20:58.087Z,16.53
2022-09-25T09:21:58.060Z,16.64
2022-09-25T09:22:58.033Z,16.69
2022-09-25T09:23:58.001Z,16.76
2022-09-25T09:24:57.966Z,16.90
2022-09-25T09:25:57.929Z,17.05
2022-09-25T09:26:57.895Z,17.01
2022-09-25T09:27:57.858Z,16.89
2022-09-25T09:28:57.826Z,16.76
2022-09-25T09:30:02.936Z,16.86
2022-09-25T09:30:57.830Z,17.01
2022-09-25T09:31:57.740Z,16.90
2022-09-25T09:32:57.699Z,16.96
2022-09-25T09:33:57.668Z,17.08
2022-09-25T09:35:06.789Z,17.09
2022-09-25T09:35:57.598Z,17.16
2022-09-25T09:36:57.574Z,17.16
2022-09-25T09:37:57.542Z,17.11
2022-09-25T09:38:57.502Z,17.12
2022-09-25T09:39:57.467Z,17.14
2022-09-25T09:40:57.525Z,17.24
2022-09-25T09:41:57.403Z,17.30
2022-09-25T09:42:57.372Z,17.05
2022-09-25T09:43:57.773Z,17.11
2022-09-25T09:44:57.308Z,17.24
2022-09-25T09:45:57.310Z,17.29
2022-09-25T09:46:57.241Z,17.34
2022-09-25T09:47:57.215Z,17.30
2022-09-25T09:48:57.197Z,17.15
2022-09-25T09:49:57.147Z,17.15
2022-09-25T09:50:57.113Z,17.27
2022-09-25T09:51:57.078Z,17.27
2022-09-25T09:52:57.055Z,17.36
2022-09-25T09:53:57.018Z,17.34
2022-09-25T09:54:56.986Z,17.09
2022-09-25T09:55:56.979Z,16.69
2022-09-25T09:56:56.920Z,16.65
2022-09-25T09:57:56.884Z,16.71
2022-09-25T09:58:56.851Z,16.51
2022-09-25T10:00:02.066Z,16.76
2022-09-25T10:00:56.796Z,16.94
2022-09-25T10:01:56.898Z,17.08
2022-09-25T10:02:56.995Z,17.09
2022-09-25T10:03:56.692Z,17.23
2022-09-25T10:04:56.675Z,17.31
2022-09-25T10:05:56.629Z,17.38
2022-09-25T10:06:56.598Z,17.39
2022-09-25T10:07:56.564Z,17.31
2022-09-25T10:08:56.531Z,17.38
2022-09-25T10:09:56.504Z,17.29
2022-09-25T10:10:56.464Z,17.51
2022-09-25T10:11:56.433Z,17.46
2022-09-25T10:12:56.403Z,17.52
2022-09-25T10:13:56.368Z,17.14
2022-09-25T10:14:56.357Z,17.16
2022-09-25T10:15:56.378Z,16.87
2022-09-25T10:16:56.276Z,16.91
2022-09-25T10:17:56.239Z,16.72
2022-09-25T10:18:56.205Z,16.54
2022-09-25T10:19:56.174Z,16.39
2022-09-25T10:20:56.158Z,16.58
2022-09-25T10:21:56.109Z,16.65
2022-09-25T10:22:56.079Z,16.57
2022-09-25T10:23:56.048Z,16.53
2022-09-25T10:24:56.015Z,16.56
2022-09-25T10:25:56.442Z,16.71
2022-09-25T10:26:55.970Z,16.93
2022-09-25T10:27:55.917Z,17.16
2022-09-25T10:28:55.888Z,17.20
2022-09-25T10:29:55.851Z,17.23
2022-09-25T10:30:55.900Z,17.15
2022-09-25T10:31:55.813Z,17.41
2022-09-25T10:32:57.706Z,17.45
2022-09-25T10:33:55.726Z,17.65
2022-09-25T10:34:55.701Z,17.76
2022-09-25T10:35:55.656Z,18.01
2022-09-25T10:36:55.625Z,18.19
2022-09-25T10:37:55.592Z,18.23
2022-09-25T10:39:12.950Z,18.20
2022-09-25T10:39:55.528Z,18.31
2022-09-25T10:40:55.524Z,18.18
2022-09-25T10:41:55.471Z,18.07
2022-09-25T10:42:55.434Z,18.08
2022-09-25T10:43:55.401Z,18.08
2022-09-25T10:44:57.914Z,18.15
2022-09-25T10:45:55.379Z,17.89
2022-09-25T10:46:55.319Z,17.68
2022-09-25T10:47:55.274Z,17.49
2022-09-25T10:48:55.247Z,17.60
2022-09-25T10:49:55.216Z,17.71
2022-09-25T10:50:55.183Z,17.83
2022-09-25T10:51:55.161Z,17.87
2022-09-25T10:52:55.115Z,18.16
2022-09-25T10:53:55.088Z,18.26
2022-09-25T10:54:55.053Z,18.35
2022-09-25T10:55:55.032Z,18.43
2022-09-25T10:56:54.991Z,18.65
2022-09-25T10:57:54.972Z,18.47
2022-09-25T10:58:54.933Z,18.47
2022-09-25T10:59:54.899Z,18.43
2022-09-25T11:00:54.873Z,18.37
2022-09-25T11:01:55.029Z,18.26
2022-09-25T11:02:54.841Z,17.90
2022-09-25T11:03:54.779Z,17.97
2022-09-25T11:04:54.740Z,18.05
2022-09-25T11:05:54.715Z,18.25
2022-09-25T11:06:54.676Z,18.38
2022-09-25T11:07:54.650Z,18.47
2022-09-25T11:08:54.612Z,18.60
2022-09-25T11:09:59.185Z,18.50
2022-09-25T11:10:54.582Z,18.26
2022-09-25T11:11:54.515Z,18.37
2022-09-25T11:12:54.484Z,18.31
2022-09-25T11:13:54.455Z,18.22
2022-09-25T11:14:54.422Z,18.33
2022-09-25T11:15:54.390Z,18.22
2022-09-25T11:16:54.491Z,18.05
2022-09-25T11:17:54.346Z,17.80
2022-09-25T11:18:54.301Z,17.74
2022-09-25T11:19:54.270Z,17.79
2022-09-25T11:20:54.238Z,17.82
2022-09-25T11:21:54.204Z,17.60
2022-09-25T11:22:54.174Z,17.60
2022-09-25T11:23:54.136Z,17.68
2022-09-25T11:25:00.208Z,17.83
2022-09-25T11:25:54.105Z,17.74
2022-09-25T11:26:54.049Z,17.87
2022-09-25T11:27:54.018Z,17.94
2022-09-25T11:28:53.984Z,17.79
2022-09-25T11:29:53.960Z,17.82
2022-09-25T11:30:53.978Z,17.94
2022-09-25T11:31:53.890Z,18.20
2022-09-25T11:32:53.857Z,18.13
2022-09-25T11:33:53.825Z,18.00
2022-09-25T11:34:53.818Z,18.10
2022-09-25T11:35:53.761Z,18.34
2022-09-25T11:36:53.733Z,18.75
2022-09-25T11:37:53.705Z,18.96
2022-09-25T11:38:53.670Z,19.29
2022-09-25T11:39:53.637Z,19.55
2022-09-25T11:40:53.685Z,19.82
2022-09-25T11:41:53.575Z,20.06
2022-09-25T11:42:53.541Z,20.41
2022-09-25T11:43:57.889Z,20.59
2022-09-25T11:44:53.481Z,20.43
2022-09-25T11:45:53.475Z,20.74
2022-09-25T11:46:53.422Z,20.85
2022-09-25T11:47:53.392Z,21.00
2022-09-25T11:48:53.359Z,20.48
2022-09-25T11:49:53.343Z,20.19
2022-09-25T11:50:53.298Z,19.82
2022-09-25T11:51:53.289Z,19.16
2022-09-25T11:52:53.240Z,19.52
2022-09-25T11:53:53.207Z,19.64
2022-09-25T11:54:53.185Z,19.74
2022-09-25T11:55:53.150Z,19.94
2022-09-25T11:56:53.121Z,19.62
2022-09-25T11:57:53.093Z,19.54
2022-09-25T11:58:53.060Z,19.69
2022-09-25T11:59:53.033Z,19.69
2022-09-25T12:00:52.998Z,19.62
2022-09-25T12:01:53.096Z,19.81
2022-09-25T12:02:52.991Z,20.06
2022-09-25T12:03:52.913Z,20.41
2022-09-25T12:04:52.881Z,20.72
2022-09-25T12:05:52.850Z,20.96
2022-09-25T12:06:52.825Z,21.14
2022-09-25T12:07:52.788Z,21.33
2022-09-25T12:08:52.760Z,21.43
2022-09-25T12:09:52.728Z,21.39
2022-09-25T12:10:52.698Z,21.32
2022-09-25T12:11:52.669Z,21.06
2022-09-25T12:12:52.642Z,20.78
2022-09-25T12:13:52.615Z,20.66
2022-09-25T12:14:52.582Z,20.62
2022-09-25T12:15:52.550Z,20.56
2022-09-25T12:16:52.554Z,20.55
2022-09-25T12:17:52.494Z,20.34
2022-09-25T12:18:52.461Z,20.19
2022-09-25T12:19:52.433Z,19.63
2022-09-25T12:20:52.404Z,19.39
2022-09-25T12:21:52.375Z,19.47
2022-09-25T12:22:52.344Z,19.48
2022-09-25T12:23:52.321Z,19.54
2022-09-25T12:24:52.281Z,19.40
2022-09-25T12:25:52.250Z,19.58
2022-09-25T12:26:52.229Z,20.06
2022-09-25T12:27:52.191Z,20.07
2022-09-25T12:28:52.161Z,20.09
2022-09-25T12:29:52.132Z,20.21
2022-09-25T12:30:52.139Z,20.50
2022-09-25T12:31:52.076Z,20.77
2022-09-25T12:32:52.043Z,20.69
2022-09-25T12:33:52.019Z,20.84
2022-09-25T12:34:51.983Z,21.00
2022-09-25T12:35:51.968Z,20.65
2022-09-25T12:36:51.947Z,21.03
2022-09-25T12:37:51.899Z,21.15
2022-09-25T12:38:51.866Z,20.88
2022-09-25T12:39:51.835Z,21.21
2022-09-25T12:40:51.894Z,21.22
2022-09-25T12:41:51.779Z,20.77
2022-09-25T12:42:51.750Z,20.87
2022-09-25T12:43:51.719Z,21.05
2022-09-25T12:44:51.690Z,21.06
2022-09-25T12:45:51.708Z,21.11
2022-09-25T12:46:51.652Z,21.24
2022-09-25T12:47:51.604Z,21.15
2022-09-25T12:48:51.575Z,21.29
2022-09-25T12:49:51.546Z,21.21
2022-09-25T12:50:51.517Z,21.48
2022-09-25T12:51:51.486Z,21.83